createdAt,value
2019-05-18T00:02:32.253Z,2.30
2019-05-18T00:05:01.148Z,3.50
2019-05-18T00:07:30.255Z,2.10
2019-05-18T00:10:00.063Z,2.40
2019-05-18T00:12:29.354Z,2.10
2019-05-18T00:14:57.958Z,2.80
2019-05-18T00:17:27.766Z,2.40
2019-05-18T00:19:56.475Z,2.20
2019-05-18T00:22:24.404Z,2.00
2019-05-18T00:24:53.763Z,2.70
2019-05-18T00:27:24.297Z,2.80
2019-05-18T00:29:53.597Z,2.95
2019-05-18T00:32:23.317Z,2.90
2019-05-18T00:37:19.920Z,2.90
2019-05-18T00:39:48.997Z,2.73
2019-05-18T00:42:19.250Z,2.30
2019-05-18T00:44:48.651Z,2.40
2019-05-18T00:47:17.635Z,2.70
2019-05-18T00:49:47.174Z,2.00
2019-05-18T00:54:45.459Z,2.30
2019-05-18T00:57:15.759Z,2.40
2019-05-18T00:59:46.166Z,2.63
2019-05-18T01:02:17.355Z,2.90
2019-05-18T01:04:47.718Z,3.00
2019-05-18T01:07:17.138Z,3.20
2019-05-18T01:09:47.639Z,2.63
2019-05-18T01:12:20.449Z,3.00
2019-05-18T01:14:49.790Z,3.13
2019-05-18T01:17:19.191Z,2.60
2019-05-18T01:19:48.777Z,2.60
2019-05-18T01:22:18.616Z,2.40
2019-05-18T01:27:26.374Z,2.70
2019-05-18T01:29:56.246Z,2.40
2019-05-18T01:32:25.205Z,2.55
2019-05-18T01:34:54.424Z,2.90
2019-05-18T01:37:24.738Z,2.90
2019-05-18T01:39:54.350Z,3.35
2019-05-18T01:43:33.186Z,3.45
2019-05-18T01:47:13.702Z,3.10
2019-05-18T01:49:42.418Z,3.10
2019-05-18T01:52:12.208Z,2.65
2019-05-18T01:54:41.146Z,2.70
2019-05-18T01:57:10.720Z,2.60
2019-05-18T02:00:26.075Z,2.70
2019-05-18T02:05:08.919Z,2.80
2019-05-18T02:07:38.700Z,3.10
2019-05-18T02:10:08.244Z,2.85
2019-05-18T02:12:38.458Z,2.95
2019-05-18T02:15:08.155Z,3.00
2019-05-18T02:17:38.322Z,3.57
2019-05-18T02:20:07.420Z,3.10
2019-05-18T02:22:37.908Z,2.90
2019-05-18T02:25:07.972Z,2.80
2019-05-18T02:30:07.922Z,2.80
2019-05-18T02:32:38.097Z,2.60
2019-05-18T02:35:08.492Z,2.90
2019-05-18T02:37:37.525Z,3.00
2019-05-18T02:40:06.497Z,3.00
2019-05-18T02:42:36.994Z,2.80
2019-05-18T02:45:06.520Z,2.70
2019-05-18T02:47:36.262Z,3.00
2019-05-18T02:50:06.394Z,3.15
2019-05-18T02:52:36.016Z,3.75
2019-05-18T02:55:05.223Z,3.85
2019-05-18T02:57:34.834Z,2.70
2019-05-18T03:02:33.030Z,2.70
2019-05-18T03:07:30.944Z,2.50
2019-05-18T03:10:00.563Z,2.60
2019-05-18T03:12:30.383Z,2.40
2019-05-18T03:15:00.509Z,2.70
2019-05-18T03:17:30.114Z,2.75
2019-05-18T03:22:28.084Z,3.00
2019-05-18T03:24:58.427Z,2.60
2019-05-18T03:27:29.016Z,2.75
2019-05-18T03:29:58.885Z,3.30
2019-05-18T03:32:28.011Z,2.80
2019-05-18T03:36:51.782Z,3.00
2019-05-18T03:39:21.511Z,2.80
2019-05-18T03:43:23.889Z,3.20
2019-05-18T03:45:54.181Z,2.65
2019-05-18T03:51:42.987Z,4.00
2019-05-18T03:55:23.488Z,3.53
2019-05-18T03:57:53.568Z,4.80
2019-05-18T04:01:09.294Z,2.60
2019-05-18T04:03:39.722Z,3.95
2019-05-18T04:06:08.471Z,5.75
2019-05-18T04:08:37.722Z,2.70
2019-05-18T04:13:34.798Z,3.10
2019-05-18T04:16:03.973Z,4.00
2019-05-18T04:18:32.927Z,3.60
2019-05-18T04:21:07.512Z,3.00
2019-05-18T04:23:35.486Z,4.50
2019-05-18T04:26:05.164Z,2.60
2019-05-18T04:28:35.913Z,2.90
2019-05-18T04:31:05.686Z,3.30
2019-05-18T04:33:34.965Z,3.00
2019-05-18T04:36:03.363Z,2.85
2019-05-18T04:38:33.259Z,2.80
2019-05-18T04:41:03.029Z,2.75
2019-05-18T04:43:32.408Z,2.60
2019-05-18T04:46:01.943Z,2.90
2019-05-18T04:48:31.295Z,3.10
2019-05-18T04:52:10.522Z,2.80
2019-05-18T04:54:39.453Z,2.80
2019-05-18T04:57:08.922Z,2.90
2019-05-18T04:59:38.615Z,2.70
2019-05-18T05:02:06.448Z,3.10
2019-05-18T05:04:34.503Z,3.35
2019-05-18T05:07:02.509Z,3.20
2019-05-18T05:09:30.603Z,3.30
2019-05-18T05:11:58.869Z,3.35
2019-05-18T05:16:23.629Z,3.30
2019-05-18T05:18:51.526Z,2.90
2019-05-18T05:21:20.254Z,3.40
2019-05-18T05:23:48.999Z,3.80
2019-05-18T05:26:17.340Z,3.80
2019-05-18T05:28:46.239Z,4.15
2019-05-18T05:31:14.402Z,4.20
2019-05-18T05:33:42.232Z,3.80
2019-05-18T05:36:11.283Z,3.40
2019-05-18T05:41:06.597Z,2.95
2019-05-18T05:43:34.385Z,3.07
2019-05-18T05:46:02.890Z,2.95
2019-05-18T05:48:32.592Z,3.03
2019-05-18T05:51:01.073Z,3.05
2019-05-18T05:53:29.310Z,2.80
2019-05-18T05:55:59.149Z,2.90
2019-05-18T05:58:28.159Z,2.90
2019-05-18T06:00:57.547Z,3.10
2019-05-18T06:03:25.452Z,3.50
2019-05-18T06:05:53.672Z,4.05
2019-05-18T06:08:21.459Z,3.20
2019-05-18T06:10:49.210Z,3.40
2019-05-18T06:13:17.965Z,3.50
2019-05-18T06:15:45.748Z,2.67
2019-05-18T06:18:13.573Z,2.80
2019-05-18T06:20:50.973Z,2.75
2019-05-18T06:23:11.749Z,4.60
2019-05-18T06:25:41.711Z,3.50
2019-05-18T06:28:11.721Z,7.65
2019-05-18T06:30:40.445Z,3.35
2019-05-18T06:33:08.639Z,7.50
2019-05-18T06:35:37.610Z,5.80
2019-05-18T06:38:06.273Z,4.50
2019-05-18T06:40:34.283Z,5.85
2019-05-18T06:43:02.412Z,6.50
2019-05-18T06:47:03.855Z,3.15
2019-05-18T06:49:32.139Z,3.80
2019-05-18T06:52:00.636Z,6.70
2019-05-18T06:54:28.689Z,3.70
2019-05-18T06:56:58.911Z,5.05
2019-05-18T06:59:26.619Z,5.90
2019-05-18T07:01:54.658Z,8.20
2019-05-18T07:04:22.471Z,3.27
2019-05-18T07:06:50.478Z,2.80
2019-05-18T07:09:18.543Z,5.93
2019-05-18T07:11:46.669Z,3.55
2019-05-18T07:14:25.424Z,3.45
2019-05-18T07:16:45.288Z,4.50
2019-05-18T07:19:13.696Z,3.50
2019-05-18T07:21:41.777Z,6.80
2019-05-18T07:24:10.021Z,5.65
2019-05-18T07:26:38.318Z,6.90
2019-05-18T07:29:07.123Z,8.50
2019-05-18T07:31:35.446Z,5.35
2019-05-18T07:34:03.254Z,4.50
2019-05-18T07:36:31.330Z,9.20
2019-05-18T07:38:59.634Z,8.30
2019-05-18T07:41:27.662Z,5.10
2019-05-18T07:43:55.689Z,9.10
2019-05-18T07:46:23.779Z,8.40
2019-05-18T07:48:51.523Z,4.40
2019-05-18T07:51:19.398Z,7.10
2019-05-18T07:53:47.290Z,7.90
2019-05-18T07:56:14.992Z,9.50
2019-05-18T07:58:43.262Z,5.90
2019-05-18T08:01:11.218Z,3.70
2019-05-18T08:03:39.274Z,4.20
2019-05-18T08:06:07.573Z,6.70
2019-05-18T08:08:35.583Z,5.10
2019-05-18T08:11:03.882Z,4.10
2019-05-18T08:13:32.021Z,4.70
2019-05-18T08:15:59.719Z,2.90
2019-05-18T08:18:27.502Z,8.15
2019-05-18T08:20:55.301Z,5.80
2019-05-18T08:23:23.450Z,12.50
2019-05-18T08:25:52.418Z,6.05
2019-05-18T08:28:20.256Z,13.20
2019-05-18T08:30:48.962Z,8.20
2019-05-18T08:33:17.137Z,10.55
2019-05-18T08:35:45.251Z,11.70
2019-05-18T08:38:12.935Z,7.90
2019-05-18T08:40:41.238Z,9.95
2019-05-18T08:43:09.183Z,12.10
2019-05-18T08:45:37.121Z,8.70
2019-05-18T08:48:05.121Z,7.80
2019-05-18T08:50:32.943Z,7.60
2019-05-18T08:53:00.809Z,12.10
2019-05-18T08:55:28.511Z,7.25
2019-05-18T08:57:56.511Z,6.30
2019-05-18T09:00:24.135Z,6.55
2019-05-18T09:02:54.092Z,8.58
2019-05-18T09:05:22.756Z,7.70
2019-05-18T09:07:51.055Z,5.50
2019-05-18T09:10:18.862Z,7.80
2019-05-18T09:12:46.389Z,5.85
2019-05-18T09:15:17.436Z,8.05
2019-05-18T09:20:27.195Z,7.25
2019-05-18T09:22:54.623Z,7.00
2019-05-18T09:25:23.407Z,4.30
2019-05-18T09:27:50.846Z,8.83
2019-05-18T09:32:24.857Z,3.40
2019-05-18T09:36:27.423Z,5.20
2019-05-18T09:38:55.231Z,3.40
2019-05-18T09:41:22.814Z,3.65
2019-05-18T09:43:55.098Z,4.20
2019-05-18T09:46:23.493Z,6.17
2019-05-18T09:48:51.799Z,5.00
2019-05-18T09:51:19.500Z,4.60
2019-05-18T09:53:51.662Z,4.40
2019-05-18T09:56:16.462Z,3.30
2019-05-18T09:58:44.606Z,4.10
2019-05-18T10:01:13.127Z,5.30
2019-05-18T10:03:41.247Z,4.00
2019-05-18T10:06:09.302Z,6.65
2019-05-18T10:08:36.617Z,5.15
2019-05-18T10:11:05.324Z,7.00
2019-05-18T10:13:33.232Z,7.60
2019-05-18T10:16:00.499Z,5.10
2019-05-18T10:18:28.198Z,4.30
2019-05-18T10:20:55.554Z,8.35
2019-05-18T10:23:23.156Z,4.60
2019-05-18T10:25:50.809Z,4.67
2019-05-18T10:28:18.151Z,4.60
2019-05-18T10:30:45.977Z,4.73
2019-05-18T10:33:13.362Z,5.50
2019-05-18T10:35:41.150Z,8.10
2019-05-18T10:38:09.510Z,6.83
2019-05-18T10:40:36.731Z,4.57
2019-05-18T10:43:03.988Z,6.75
2019-05-18T10:48:14.360Z,7.97
2019-05-18T10:50:43.134Z,13.00
2019-05-18T10:53:10.718Z,5.60
2019-05-18T10:55:38.707Z,10.10
2019-05-18T10:58:06.273Z,5.37
2019-05-18T11:01:24.241Z,7.80
2019-05-18T11:03:51.752Z,7.23
2019-05-18T11:06:20.119Z,6.35
2019-05-18T11:08:47.550Z,7.63
2019-05-18T11:11:16.083Z,5.00
2019-05-18T11:13:43.721Z,8.30
2019-05-18T11:16:11.447Z,7.60
2019-05-18T11:18:38.903Z,4.90
2019-05-18T11:21:06.443Z,6.20
2019-05-18T11:23:43.156Z,5.03
2019-05-18T11:26:03.038Z,5.25
2019-05-18T11:28:30.953Z,5.50
2019-05-18T11:30:58.228Z,4.30
2019-05-18T11:33:25.475Z,4.45
2019-05-18T11:35:52.943Z,7.47
2019-05-18T11:38:20.273Z,5.87
2019-05-18T11:40:47.506Z,5.00
2019-05-18T11:43:15.165Z,4.10
2019-05-18T11:45:43.024Z,4.60
2019-05-18T11:48:10.672Z,5.80
2019-05-18T11:50:38.273Z,4.30
2019-05-18T11:53:05.583Z,4.15
2019-05-18T11:55:32.815Z,4.40
2019-05-18T11:58:00.027Z,5.50
2019-05-18T12:00:27.318Z,4.10
2019-05-18T12:02:54.684Z,5.03
2019-05-18T12:05:22.041Z,4.85
2019-05-18T12:07:49.907Z,4.25
2019-05-18T12:10:18.679Z,4.60
2019-05-18T12:12:46.544Z,4.00
2019-05-18T12:15:14.513Z,4.70
2019-05-18T12:17:41.949Z,4.50
2019-05-18T12:20:09.754Z,4.15
2019-05-18T12:22:37.180Z,7.30
2019-05-18T12:25:04.873Z,7.80
2019-05-18T12:27:32.575Z,5.60
2019-05-18T12:30:00.512Z,7.80
2019-05-18T12:32:28.120Z,6.30
2019-05-18T12:34:55.671Z,4.80
2019-05-18T12:37:22.940Z,4.80
2019-05-18T12:39:51.796Z,4.10
2019-05-18T12:42:19.716Z,5.30
2019-05-18T12:44:46.931Z,4.70
2019-05-18T12:47:14.609Z,4.25
2019-05-18T12:49:42.150Z,4.10
2019-05-18T12:52:09.520Z,5.93
2019-05-18T12:54:46.004Z,5.40
2019-05-18T12:57:07.172Z,3.83
2019-05-18T12:59:34.710Z,4.10
2019-05-18T13:02:02.365Z,4.73
2019-05-18T13:07:11.762Z,4.25
2019-05-18T13:09:39.000Z,4.17
2019-05-18T13:12:06.406Z,4.10
2019-05-18T13:14:33.646Z,3.87
2019-05-18T13:17:00.932Z,4.30
2019-05-18T13:19:28.614Z,4.00
2019-05-18T13:21:56.127Z,3.83
2019-05-18T13:24:23.674Z,3.73
2019-05-18T13:26:51.489Z,5.95
2019-05-18T13:29:19.165Z,3.75
2019-05-18T13:31:46.449Z,4.07
2019-05-18T13:34:13.907Z,3.30
2019-05-18T13:36:42.221Z,2.80
2019-05-18T13:39:09.865Z,2.80
2019-05-18T13:41:37.677Z,2.60
2019-05-18T13:44:05.261Z,2.80
2019-05-18T13:46:33.362Z,2.80
2019-05-18T13:49:01.206Z,2.70
2019-05-18T13:51:28.466Z,3.00
2019-05-18T13:53:55.770Z,2.75
2019-05-18T13:56:23.081Z,2.80
2019-05-18T13:58:51.254Z,2.90
2019-05-18T14:01:19.026Z,3.30
2019-05-18T14:03:46.277Z,4.28
2019-05-18T14:06:13.964Z,3.50
2019-05-18T14:08:41.505Z,4.50
2019-05-18T14:11:09.024Z,2.90
2019-05-18T14:13:36.498Z,5.90
2019-05-18T14:16:03.784Z,4.90
2019-05-18T14:18:34.243Z,1.85
2019-05-18T14:21:01.649Z,2.70
2019-05-18T14:23:29.080Z,5.73
2019-05-18T14:25:56.481Z,3.40
2019-05-18T14:28:23.815Z,4.47
2019-05-18T14:30:51.662Z,4.47
2019-05-18T14:33:18.943Z,5.30
2019-05-18T14:35:46.812Z,3.15
2019-05-18T14:38:14.140Z,5.30
2019-05-18T14:40:41.672Z,5.90
2019-05-18T14:43:09.261Z,3.20
2019-05-18T14:45:36.517Z,3.17
2019-05-18T14:48:03.767Z,4.37
2019-05-18T14:50:32.530Z,4.13
2019-05-18T14:53:00.739Z,3.10
2019-05-18T14:55:33.659Z,4.70
2019-05-18T14:57:57.796Z,4.10
2019-05-18T15:01:14.435Z,4.10
2019-05-18T15:03:42.271Z,2.30
2019-05-18T15:06:09.522Z,3.60
2019-05-18T15:08:36.762Z,3.45
2019-05-18T15:11:04.206Z,6.65
2019-05-18T15:13:31.914Z,1.85
2019-05-18T15:16:00.505Z,1.92
2019-05-18T15:18:28.244Z,3.08
2019-05-18T15:20:55.495Z,2.40
2019-05-18T15:23:23.566Z,3.37
2019-05-18T15:25:51.571Z,5.20
2019-05-18T15:28:19.790Z,2.70
2019-05-18T15:30:47.469Z,2.50
2019-05-18T15:33:15.244Z,4.10
2019-05-18T15:35:43.325Z,1.90
2019-05-18T15:38:10.956Z,1.90
2019-05-18T15:40:38.722Z,2.27
2019-05-18T15:43:06.895Z,3.35
2019-05-18T15:45:34.501Z,2.27
2019-05-18T15:48:02.009Z,2.60
2019-05-18T15:50:29.273Z,2.45
2019-05-18T15:52:57.015Z,2.20
2019-05-18T15:55:24.597Z,3.90
2019-05-18T15:57:52.130Z,2.87
2019-05-18T16:00:21.007Z,2.97
2019-05-18T16:02:48.593Z,3.10
2019-05-18T16:05:16.245Z,2.20
2019-05-18T16:07:44.116Z,1.90
2019-05-18T16:10:13.603Z,2.10
2019-05-18T16:12:41.175Z,2.53
2019-05-18T16:15:08.774Z,3.65
2019-05-18T16:17:39.229Z,2.60
2019-05-18T16:20:06.499Z,3.00
2019-05-18T16:22:33.774Z,2.20
2019-05-18T16:25:01.414Z,5.05
2019-05-18T16:27:29.097Z,3.40
2019-05-18T16:29:58.669Z,2.35
2019-05-18T16:32:25.903Z,2.05
2019-05-18T16:34:53.185Z,4.20
2019-05-18T16:37:20.432Z,2.70
2019-05-18T16:39:48.599Z,2.25
2019-05-18T16:42:15.813Z,2.30
2019-05-18T16:44:43.058Z,2.65
2019-05-18T16:47:10.677Z,2.60
2019-05-18T16:49:38.056Z,3.60
2019-05-18T16:52:05.678Z,5.93
2019-05-18T16:54:32.908Z,4.30
2019-05-18T16:57:00.615Z,3.20
2019-05-18T16:59:27.832Z,4.85
2019-05-18T17:01:55.571Z,2.35
2019-05-18T17:04:22.960Z,5.30
2019-05-18T17:06:50.545Z,1.90
2019-05-18T17:09:18.877Z,4.40
2019-05-18T17:11:48.165Z,5.20
2019-05-18T17:14:15.619Z,6.63
2019-05-18T17:16:42.904Z,4.85
2019-05-18T17:19:10.089Z,2.85
2019-05-18T17:22:18.152Z,4.15
2019-05-18T17:24:45.756Z,3.30
2019-05-18T17:27:13.281Z,5.90
2019-05-18T17:29:40.660Z,3.83
2019-05-18T17:32:08.837Z,2.75
2019-05-18T17:34:36.471Z,3.90
2019-05-18T17:37:03.758Z,5.35
2019-05-18T17:39:33.218Z,3.00
2019-05-18T17:42:00.487Z,3.50
2019-05-18T17:44:27.821Z,2.75
2019-05-18T17:46:55.139Z,2.95
2019-05-18T17:49:27.991Z,2.40
2019-05-18T17:51:51.927Z,3.70
2019-05-18T17:54:19.287Z,3.50
2019-05-18T17:56:46.978Z,4.10
2019-05-18T17:59:14.664Z,4.20
2019-05-18T18:01:42.023Z,3.80
2019-05-18T18:04:09.336Z,3.75
2019-05-18T18:06:36.975Z,4.67
2019-05-18T18:09:06.735Z,2.60
2019-05-18T18:11:34.375Z,2.70
2019-05-18T18:14:02.314Z,2.90
2019-05-18T18:16:29.572Z,3.95
2019-05-18T18:18:57.107Z,3.20
2019-05-18T18:21:24.516Z,3.50
2019-05-18T18:23:54.482Z,4.07
2019-05-18T18:26:20.964Z,3.55
2019-05-18T18:28:48.701Z,2.90
2019-05-18T18:31:16.243Z,2.95
2019-05-18T18:33:43.924Z,3.45
2019-05-18T18:36:11.228Z,3.00
2019-05-18T18:38:38.707Z,2.70
2019-05-18T18:41:06.456Z,3.03
2019-05-18T18:43:34.552Z,3.70
2019-05-18T18:46:02.546Z,2.55
2019-05-18T18:48:29.989Z,3.07
2019-05-18T18:50:57.232Z,4.30
2019-05-18T18:53:25.105Z,3.50
2019-05-18T18:55:52.469Z,3.50
2019-05-18T18:58:19.921Z,2.95
2019-05-18T19:00:48.179Z,4.40
2019-05-18T19:03:15.527Z,2.80
2019-05-18T19:05:42.763Z,3.15
2019-05-18T19:08:11.018Z,4.30
2019-05-18T19:10:38.316Z,2.75
2019-05-18T19:13:05.894Z,3.25
2019-05-18T19:15:33.781Z,3.10
2019-05-18T19:18:01.740Z,2.80
2019-05-18T19:22:53.566Z,3.00
2019-05-18T19:25:21.334Z,2.50
2019-05-18T19:27:55.029Z,3.15
2019-05-18T19:30:19.424Z,2.50
2019-05-18T19:32:47.203Z,3.15
2019-05-18T19:35:15.441Z,3.00
2019-05-18T19:37:42.910Z,3.03
2019-05-18T19:40:11.422Z,2.80
2019-05-18T19:42:39.215Z,3.70
2019-05-18T19:45:06.762Z,3.30
2019-05-18T19:47:34.589Z,4.00
2019-05-18T19:50:01.888Z,3.10
2019-05-18T19:52:29.224Z,2.90
2019-05-18T19:54:56.632Z,2.85
2019-05-18T19:57:24.236Z,2.80
2019-05-18T19:59:51.790Z,3.20
2019-05-18T20:02:19.314Z,4.50
2019-05-18T20:05:05.689Z,3.15
2019-05-18T20:07:16.383Z,2.85
2019-05-18T20:09:43.938Z,4.10
2019-05-18T20:12:11.287Z,4.30
2019-05-18T20:14:38.538Z,3.05
2019-05-18T20:17:05.809Z,5.23
2019-05-18T20:19:39.095Z,2.80
2019-05-18T20:22:02.535Z,3.10
2019-05-18T20:24:30.521Z,3.15
2019-05-18T20:26:58.066Z,3.40
2019-05-18T20:29:25.663Z,2.70
2019-05-18T20:31:53.748Z,3.85
2019-05-18T20:34:21.146Z,2.55
2019-05-18T20:36:48.493Z,2.55
2019-05-18T20:39:16.262Z,2.75
2019-05-18T20:41:43.882Z,3.23
2019-05-18T20:44:11.786Z,2.70
2019-05-18T20:46:39.186Z,3.00
2019-05-18T20:49:06.704Z,2.35
2019-05-18T20:51:34.091Z,2.40
2019-05-18T20:54:01.790Z,2.50
2019-05-18T20:56:29.486Z,3.30
2019-05-18T20:58:56.934Z,2.60
2019-05-18T21:01:24.317Z,2.47
2019-05-18T21:03:52.393Z,2.60
2019-05-18T21:06:20.469Z,2.50
2019-05-18T21:08:48.502Z,3.20
2019-05-18T21:11:15.864Z,2.40
2019-05-18T21:13:43.406Z,2.77
2019-05-18T21:16:11.237Z,2.80
2019-05-18T21:18:38.542Z,5.27
2019-05-18T21:21:06.195Z,4.35
2019-05-18T21:23:33.562Z,4.47
2019-05-18T21:26:01.243Z,2.70
2019-05-18T21:28:29.061Z,3.72
2019-05-18T21:30:57.034Z,3.00
2019-05-18T21:33:24.288Z,5.37
2019-05-18T21:35:51.657Z,4.70
2019-05-18T21:38:18.948Z,2.50
2019-05-18T21:40:46.305Z,2.30
2019-05-18T21:43:13.783Z,2.40
2019-05-18T21:45:41.064Z,2.75
2019-05-18T21:48:10.937Z,3.90
2019-05-18T21:50:38.442Z,2.63
2019-05-18T21:53:05.844Z,3.40
2019-05-18T21:55:33.161Z,3.35
2019-05-18T21:58:00.792Z,4.95
2019-05-18T22:00:30.001Z,2.50
2019-05-18T22:02:57.277Z,2.50
2019-05-18T22:05:24.645Z,2.50
2019-05-18T22:07:51.894Z,3.30
2019-05-18T22:10:25.797Z,3.05
2019-05-18T22:12:49.148Z,2.30
2019-05-18T22:15:16.568Z,2.57
2019-05-18T22:18:02.974Z,3.50
2019-05-18T22:20:30.910Z,2.20
2019-05-18T22:22:58.935Z,2.30
2019-05-18T22:25:28.028Z,2.60
2019-05-18T22:27:55.823Z,4.33
2019-05-18T22:30:23.455Z,2.70
2019-05-18T22:32:50.806Z,3.70
2019-05-18T22:35:18.082Z,4.00
2019-05-18T22:37:47.447Z,2.97
2019-05-18T22:40:14.719Z,2.50
2019-05-18T22:42:42.459Z,2.75
2019-05-18T22:45:09.735Z,2.57
2019-05-18T22:47:38.609Z,3.20
2019-05-18T22:50:06.356Z,2.30
2019-05-18T22:52:33.710Z,2.00
2019-05-18T22:55:01.498Z,2.30
2019-05-18T22:57:29.156Z,2.40
2019-05-18T22:59:57.110Z,2.40
2019-05-18T23:02:24.695Z,2.30
2019-05-18T23:04:52.211Z,2.30
2019-05-18T23:07:20.159Z,3.40
2019-05-18T23:09:47.486Z,2.77
2019-05-18T23:12:15.108Z,2.70
2019-05-18T23:14:42.722Z,2.30
2019-05-18T23:17:09.955Z,2.43
2019-05-18T23:19:39.443Z,2.85
2019-05-18T23:22:07.227Z,2.40
2019-05-18T23:24:34.424Z,3.30
2019-05-18T23:27:01.881Z,2.55
2019-05-18T23:29:29.361Z,2.20
2019-05-18T23:31:56.758Z,2.10
2019-05-18T23:34:24.043Z,2.50
2019-05-18T23:36:51.351Z,2.75
2019-05-18T23:39:18.613Z,2.50
2019-05-18T23:41:46.458Z,2.20
2019-05-18T23:44:13.701Z,2.50
2019-05-18T23:46:40.915Z,2.60
2019-05-18T23:49:10.958Z,2.23
2019-05-18T23:51:37.610Z,2.00
2019-05-18T23:54:05.161Z,2.40
2019-05-18T23:56:32.449Z,2.57
2019-05-18T23:58:59.998Z,3.10
